sensor_id;sensor_type;location;lat;lon;timestamp;P1;durP1;ratioP1;P2;durP2;ratioP2
5052;SDS011;2545;50.892;5.740;2023-12-14T00:01:14;28.27;;;16.90;;
5052;SDS011;2545;50.892;5.740;2023-12-14T00:03:40;29.90;;;17.30;;
5052;SDS011;2545;50.892;5.740;2023-12-14T00:06:11;35.07;;;17.43;;
5052;SDS011;2545;50.892;5.740;2023-12-14T00:08:37;39.80;;;19.00;;
5052;SDS011;2545;50.892;5.740;2023-12-14T00:11:06;27.97;;;16.77;;
5052;SDS011;2545;50.892;5.740;2023-12-14T00:13:32;30.20;;;16.50;;
5052;SDS011;2545;50.892;5.740;2023-12-14T00:15:58;33.07;;;18.33;;
5052;SDS011;2545;50.892;5.740;2023-12-14T00:18:23;38.50;;;17.60;;
5052;SDS011;2545;50.892;5.740;2023-12-14T00:20:49;27.90;;;15.40;;
5052;SDS011;2545;50.892;5.740;2023-12-14T00:23:15;32.87;;;17.07;;
5052;SDS011;2545;50.892;5.740;2023-12-14T00:25:40;40.43;;;17.37;;
5052;SDS011;2545;50.892;5.740;2023-12-14T00:28:05;31.47;;;17.97;;
5052;SDS011;2545;50.892;5.740;2023-12-14T00:30:30;31.30;;;17.00;;
5052;SDS011;2545;50.892;5.740;2023-12-14T00:32:56;40.83;;;18.50;;
5052;SDS011;2545;50.892;5.740;2023-12-14T00:35:21;30.93;;;17.97;;
5052;SDS011;2545;50.892;5.740;2023-12-14T00:37:46;32.70;;;17.87;;
5052;SDS011;2545;50.892;5.740;2023-12-14T00:40:12;33.00;;;18.50;;
5052;SDS011;2545;50.892;5.740;2023-12-14T00:42:37;34.43;;;17.47;;
5052;SDS011;2545;50.892;5.740;2023-12-14T00:45:03;36.50;;;19.30;;
5052;SDS011;2545;50.892;5.740;2023-12-14T00:47:28;37.10;;;18.17;;
5052;SDS011;2545;50.892;5.740;2023-12-14T00:49:53;34.40;;;17.90;;
5052;SDS011;2545;50.892;5.740;2023-12-14T00:52:19;34.60;;;18.23;;
5052;SDS011;2545;50.892;5.740;2023-12-14T00:54:47;32.17;;;17.27;;
5052;SDS011;2545;50.892;5.740;2023-12-14T00:57:12;35.03;;;19.30;;
5052;SDS011;2545;50.892;5.740;2023-12-14T00:59:37;36.07;;;19.00;;
5052;SDS011;2545;50.892;5.740;2023-12-14T01:02:03;39.80;;;18.70;;
5052;SDS011;2545;50.892;5.740;2023-12-14T01:04:29;36.20;;;19.00;;
5052;SDS011;2545;50.892;5.740;2023-12-14T01:06:54;35.63;;;18.50;;
5052;SDS011;2545;50.892;5.740;2023-12-14T01:09:19;38.43;;;18.10;;
5052;SDS011;2545;50.892;5.740;2023-12-14T01:11:45;42.07;;;19.37;;
5052;SDS011;2545;50.892;5.740;2023-12-14T01:14:10;39.43;;;19.17;;
5052;SDS011;2545;50.892;5.740;2023-12-14T01:16:35;39.23;;;19.50;;
5052;SDS011;2545;50.892;5.740;2023-12-14T01:19:01;36.17;;;18.90;;
5052;SDS011;2545;50.892;5.740;2023-12-14T01:21:26;48.40;;;21.70;;
5052;SDS011;2545;50.892;5.740;2023-12-14T01:23:51;53.33;;;21.13;;
5052;SDS011;2545;50.892;5.740;2023-12-14T01:26:17;47.13;;;20.60;;
5052;SDS011;2545;50.892;5.740;2023-12-14T01:28:43;46.57;;;23.37;;
5052;SDS011;2545;50.892;5.740;2023-12-14T01:31:08;47.43;;;22.70;;
5052;SDS011;2545;50.892;5.740;2023-12-14T01:33:35;46.83;;;23.10;;
5052;SDS011;2545;50.892;5.740;2023-12-14T01:36:01;55.90;;;22.80;;
5052;SDS011;2545;50.892;5.740;2023-12-14T01:38:26;51.30;;;23.47;;
5052;SDS011;2545;50.892;5.740;2023-12-14T01:40:51;52.47;;;24.10;;
5052;SDS011;2545;50.892;5.740;2023-12-14T01:43:17;64.30;;;24.90;;
5052;SDS011;2545;50.892;5.740;2023-12-14T01:45:43;62.33;;;26.77;;
5052;SDS011;2545;50.892;5.740;2023-12-14T01:48:08;69.07;;;25.60;;
5052;SDS011;2545;50.892;5.740;2023-12-14T01:50:33;55.97;;;24.60;;
5052;SDS011;2545;50.892;5.740;2023-12-14T01:52:59;60.03;;;24.63;;
5052;SDS011;2545;50.892;5.740;2023-12-14T01:55:24;67.17;;;25.40;;
5052;SDS011;2545;50.892;5.740;2023-12-14T01:57:51;67.33;;;25.60;;
5052;SDS011;2545;50.892;5.740;2023-12-14T02:00:28;53.30;;;26.80;;
5052;SDS011;2545;50.892;5.740;2023-12-14T02:03:01;61.90;;;27.37;;
5052;SDS011;2545;50.892;5.740;2023-12-14T02:05:27;56.97;;;26.33;;
5052;SDS011;2545;50.892;5.740;2023-12-14T02:07:52;62.23;;;25.73;;
5052;SDS011;2545;50.892;5.740;2023-12-14T02:10:19;62.80;;;25.77;;
5052;SDS011;2545;50.892;5.740;2023-12-14T02:12:44;63.87;;;24.90;;
5052;SDS011;2545;50.892;5.740;2023-12-14T02:15:09;54.07;;;24.47;;
5052;SDS011;2545;50.892;5.740;2023-12-14T02:17:35;62.87;;;24.30;;
5052;SDS011;2545;50.892;5.740;2023-12-14T02:20:00;60.40;;;24.83;;
5052;SDS011;2545;50.892;5.740;2023-12-14T02:22:26;70.10;;;24.60;;
5052;SDS011;2545;50.892;5.740;2023-12-14T02:24:51;55.30;;;22.57;;
5052;SDS011;2545;50.892;5.740;2023-12-14T02:27:16;54.80;;;23.03;;
5052;SDS011;2545;50.892;5.740;2023-12-14T02:29:42;50.97;;;22.70;;
5052;SDS011;2545;50.892;5.740;2023-12-14T02:32:08;47.17;;;23.03;;
5052;SDS011;2545;50.892;5.740;2023-12-14T02:34:34;47.93;;;23.13;;
5052;SDS011;2545;50.892;5.740;2023-12-14T02:36:59;45.80;;;22.50;;
5052;SDS011;2545;50.892;5.740;2023-12-14T02:39:24;52.80;;;22.00;;
5052;SDS011;2545;50.892;5.740;2023-12-14T02:41:49;47.50;;;21.67;;
5052;SDS011;2545;50.892;5.740;2023-12-14T02:44:15;42.50;;;21.10;;
5052;SDS011;2545;50.892;5.740;2023-12-14T02:46:40;44.47;;;21.47;;
5052;SDS011;2545;50.892;5.740;2023-12-14T02:49:05;55.10;;;21.03;;
5052;SDS011;2545;50.892;5.740;2023-12-14T02:51:31;44.37;;;19.63;;
5052;SDS011;2545;50.892;5.740;2023-12-14T02:53:56;40.30;;;19.23;;
5052;SDS011;2545;50.892;5.740;2023-12-14T02:56:22;28.27;;;15.13;;
5052;SDS011;2545;50.892;5.740;2023-12-14T02:58:49;34.00;;;16.43;;
5052;SDS011;2545;50.892;5.740;2023-12-14T03:01:18;33.07;;;14.67;;
5052;SDS011;2545;50.892;5.740;2023-12-14T03:03:45;29.63;;;15.10;;
5052;SDS011;2545;50.892;5.740;2023-12-14T03:06:11;33.30;;;16.67;;
5052;SDS011;2545;50.892;5.740;2023-12-14T03:08:36;30.30;;;14.70;;
5052;SDS011;2545;50.892;5.740;2023-12-14T03:11:02;28.97;;;15.40;;
5052;SDS011;2545;50.892;5.740;2023-12-14T03:13:27;37.00;;;17.57;;
5052;SDS011;2545;50.892;5.740;2023-12-14T03:15:53;31.73;;;15.77;;
5052;SDS011;2545;50.892;5.740;2023-12-14T03:18:19;29.43;;;15.90;;
5052;SDS011;2545;50.892;5.740;2023-12-14T03:20:44;37.17;;;15.63;;
5052;SDS011;2545;50.892;5.740;2023-12-14T03:23:09;29.70;;;15.73;;
5052;SDS011;2545;50.892;5.740;2023-12-14T03:25:36;29.10;;;15.57;;
5052;SDS011;2545;50.892;5.740;2023-12-14T03:28:01;29.20;;;15.33;;
5052;SDS011;2545;50.892;5.740;2023-12-14T03:30:26;32.87;;;15.67;;
5052;SDS011;2545;50.892;5.740;2023-12-14T03:32:52;31.47;;;14.63;;
5052;SDS011;2545;50.892;5.740;2023-12-14T03:35:17;26.40;;;13.10;;
5052;SDS011;2545;50.892;5.740;2023-12-14T03:37:42;29.53;;;14.80;;
5052;SDS011;2545;50.892;5.740;2023-12-14T03:40:08;36.43;;;16.03;;
5052;SDS011;2545;50.892;5.740;2023-12-14T03:42:33;30.47;;;15.90;;
5052;SDS011;2545;50.892;5.740;2023-12-14T03:44:58;29.80;;;14.10;;
5052;SDS011;2545;50.892;5.740;2023-12-14T03:47:24;27.67;;;15.07;;
5052;SDS011;2545;50.892;5.740;2023-12-14T03:49:49;30.83;;;14.87;;
5052;SDS011;2545;50.892;5.740;2023-12-14T03:52:14;30.67;;;15.07;;
5052;SDS011;2545;50.892;5.740;2023-12-14T03:54:40;29.50;;;15.97;;
5052;SDS011;2545;50.892;5.740;2023-12-14T03:57:05;30.07;;;14.63;;
5052;SDS011;2545;50.892;5.740;2023-12-14T03:59:30;31.23;;;14.40;;
5052;SDS011;2545;50.892;5.740;2023-12-14T04:01:57;30.93;;;13.50;;
5052;SDS011;2545;50.892;5.740;2023-12-14T04:04:23;35.33;;;15.03;;
5052;SDS011;2545;50.892;5.740;2023-12-14T04:06:49;31.17;;;16.10;;
5052;SDS011;2545;50.892;5.740;2023-12-14T04:09:14;27.03;;;14.10;;
5052;SDS011;2545;50.892;5.740;2023-12-14T04:11:39;34.37;;;15.30;;
5052;SDS011;2545;50.892;5.740;2023-12-14T04:14:05;44.73;;;17.93;;
5052;SDS011;2545;50.892;5.740;2023-12-14T04:16:30;42.53;;;15.67;;
5052;SDS011;2545;50.892;5.740;2023-12-14T04:18:55;32.30;;;15.77;;
5052;SDS011;2545;50.892;5.740;2023-12-14T04:21:21;32.53;;;16.80;;
5052;SDS011;2545;50.892;5.740;2023-12-14T04:23:46;38.33;;;16.73;;
5052;SDS011;2545;50.892;5.740;2023-12-14T04:26:12;36.67;;;16.33;;
5052;SDS011;2545;50.892;5.740;2023-12-14T04:28:38;43.30;;;16.30;;
5052;SDS011;2545;50.892;5.740;2023-12-14T04:31:04;36.90;;;16.27;;
5052;SDS011;2545;50.892;5.740;2023-12-14T04:33:29;42.23;;;17.13;;
5052;SDS011;2545;50.892;5.740;2023-12-14T04:35:55;38.90;;;17.73;;
5052;SDS011;2545;50.892;5.740;2023-12-14T04:38:20;41.37;;;17.20;;
5052;SDS011;2545;50.892;5.740;2023-12-14T04:40:45;42.17;;;18.00;;
5052;SDS011;2545;50.892;5.740;2023-12-14T04:43:10;44.10;;;17.57;;
5052;SDS011;2545;50.892;5.740;2023-12-14T04:45:36;39.93;;;19.17;;
5052;SDS011;2545;50.892;5.740;2023-12-14T04:48:02;39.97;;;17.67;;
5052;SDS011;2545;50.892;5.740;2023-12-14T04:50:28;38.97;;;17.50;;
5052;SDS011;2545;50.892;5.740;2023-12-14T04:52:53;52.20;;;18.83;;
5052;SDS011;2545;50.892;5.740;2023-12-14T04:55:18;31.00;;;16.40;;
5052;SDS011;2545;50.892;5.740;2023-12-14T04:57:44;40.37;;;18.30;;
5052;SDS011;2545;50.892;5.740;2023-12-14T05:00:11;38.83;;;17.90;;
5052;SDS011;2545;50.892;5.740;2023-12-14T05:02:37;31.83;;;16.43;;
5052;SDS011;2545;50.892;5.740;2023-12-14T05:05:03;51.10;;;17.53;;
5052;SDS011;2545;50.892;5.740;2023-12-14T05:07:28;45.30;;;19.07;;
5052;SDS011;2545;50.892;5.740;2023-12-14T05:09:55;39.60;;;17.20;;
5052;SDS011;2545;50.892;5.740;2023-12-14T05:12:31;36.67;;;15.53;;
5052;SDS011;2545;50.892;5.740;2023-12-14T05:14:57;34.37;;;15.93;;
5052;SDS011;2545;50.892;5.740;2023-12-14T05:17:22;38.33;;;16.67;;
5052;SDS011;2545;50.892;5.740;2023-12-14T05:19:47;36.47;;;15.40;;
5052;SDS011;2545;50.892;5.740;2023-12-14T05:22:13;31.70;;;14.40;;
5052;SDS011;2545;50.892;5.740;2023-12-14T05:24:38;29.00;;;15.10;;
5052;SDS011;2545;50.892;5.740;2023-12-14T05:27:04;30.13;;;13.97;;
5052;SDS011;2545;50.892;5.740;2023-12-14T05:29:29;32.30;;;13.90;;
5052;SDS011;2545;50.892;5.740;2023-12-14T05:31:55;31.07;;;14.50;;
5052;SDS011;2545;50.892;5.740;2023-12-14T05:34:20;36.40;;;14.27;;
5052;SDS011;2545;50.892;5.740;2023-12-14T05:36:45;33.73;;;14.63;;
5052;SDS011;2545;50.892;5.740;2023-12-14T05:39:11;27.47;;;14.13;;
5052;SDS011;2545;50.892;5.740;2023-12-14T05:41:40;36.33;;;15.23;;
5052;SDS011;2545;50.892;5.740;2023-12-14T05:44:06;31.77;;;14.50;;
5052;SDS011;2545;50.892;5.740;2023-12-14T05:46:31;26.67;;;13.43;;
5052;SDS011;2545;50.892;5.740;2023-12-14T05:48:57;24.87;;;13.60;;
5052;SDS011;2545;50.892;5.740;2023-12-14T05:51:26;25.93;;;13.37;;
5052;SDS011;2545;50.892;5.740;2023-12-14T05:53:52;31.60;;;17.87;;
5052;SDS011;2545;50.892;5.740;2023-12-14T05:56:17;30.90;;;14.40;;
5052;SDS011;2545;50.892;5.740;2023-12-14T05:58:44;31.75;;;17.67;;
5052;SDS011;2545;50.892;5.740;2023-12-14T06:01:10;31.20;;;14.40;;
5052;SDS011;2545;50.892;5.740;2023-12-14T06:03:35;28.53;;;14.43;;
5052;SDS011;2545;50.892;5.740;2023-12-14T06:06:00;31.43;;;15.23;;
5052;SDS011;2545;50.892;5.740;2023-12-14T06:08:26;29.37;;;13.90;;
5052;SDS011;2545;50.892;5.740;2023-12-14T06:10:51;24.33;;;12.57;;
5052;SDS011;2545;50.892;5.740;2023-12-14T06:13:16;29.53;;;13.60;;
5052;SDS011;2545;50.892;5.740;2023-12-14T06:15:42;29.67;;;13.63;;
5052;SDS011;2545;50.892;5.740;2023-12-14T06:18:07;32.53;;;13.63;;
5052;SDS011;2545;50.892;5.740;2023-12-14T06:20:32;30.73;;;12.70;;
5052;SDS011;2545;50.892;5.740;2023-12-14T06:22:57;30.93;;;14.60;;
5052;SDS011;2545;50.892;5.740;2023-12-14T06:25:23;34.00;;;15.80;;
5052;SDS011;2545;50.892;5.740;2023-12-14T06:27:48;27.77;;;14.07;;
5052;SDS011;2545;50.892;5.740;2023-12-14T06:30:14;25.60;;;12.80;;
5052;SDS011;2545;50.892;5.740;2023-12-14T06:32:42;31.57;;;13.97;;
5052;SDS011;2545;50.892;5.740;2023-12-14T06:35:07;30.83;;;14.73;;
5052;SDS011;2545;50.892;5.740;2023-12-14T06:37:32;25.90;;;13.73;;
5052;SDS011;2545;50.892;5.740;2023-12-14T06:39:58;24.33;;;13.13;;
5052;SDS011;2545;50.892;5.740;2023-12-14T06:42:23;32.33;;;15.10;;
5052;SDS011;2545;50.892;5.740;2023-12-14T06:44:52;43.60;;;15.77;;
5052;SDS011;2545;50.892;5.740;2023-12-14T06:47:17;30.30;;;13.97;;
5052;SDS011;2545;50.892;5.740;2023-12-14T06:49:43;30.90;;;14.07;;
5052;SDS011;2545;50.892;5.740;2023-12-14T06:52:08;28.33;;;13.97;;
5052;SDS011;2545;50.892;5.740;2023-12-14T06:54:34;37.63;;;16.00;;
5052;SDS011;2545;50.892;5.740;2023-12-14T06:57:00;32.07;;;14.53;;
5052;SDS011;2545;50.892;5.740;2023-12-14T06:59:25;32.23;;;13.67;;
5052;SDS011;2545;50.892;5.740;2023-12-14T07:01:51;31.40;;;15.27;;
5052;SDS011;2545;50.892;5.740;2023-12-14T07:04:16;32.10;;;14.90;;
5052;SDS011;2545;50.892;5.740;2023-12-14T07:06:49;28.07;;;14.00;;
5052;SDS011;2545;50.892;5.740;2023-12-14T07:09:16;27.83;;;14.67;;
5052;SDS011;2545;50.892;5.740;2023-12-14T07:11:41;30.83;;;14.93;;
5052;SDS011;2545;50.892;5.740;2023-12-14T07:14:06;28.37;;;14.77;;
5052;SDS011;2545;50.892;5.740;2023-12-14T07:16:32;27.77;;;14.27;;
5052;SDS011;2545;50.892;5.740;2023-12-14T07:18:57;29.70;;;14.23;;
5052;SDS011;2545;50.892;5.740;2023-12-14T07:21:23;29.53;;;13.40;;
5052;SDS011;2545;50.892;5.740;2023-12-14T07:23:48;31.50;;;15.30;;
5052;SDS011;2545;50.892;5.740;2023-12-14T07:26:13;26.30;;;13.70;;
5052;SDS011;2545;50.892;5.740;2023-12-14T07:28:40;28.33;;;14.60;;
5052;SDS011;2545;50.892;5.740;2023-12-14T07:31:05;39.27;;;15.90;;
5052;SDS011;2545;50.892;5.740;2023-12-14T07:33:30;30.67;;;15.50;;
5052;SDS011;2545;50.892;5.740;2023-12-14T07:35:57;31.03;;;14.80;;
5052;SDS011;2545;50.892;5.740;2023-12-14T07:38:22;31.60;;;15.00;;
5052;SDS011;2545;50.892;5.740;2023-12-14T07:40:48;32.87;;;14.97;;
5052;SDS011;2545;50.892;5.740;2023-12-14T07:43:15;24.73;;;13.70;;
5052;SDS011;2545;50.892;5.740;2023-12-14T07:45:40;25.17;;;14.50;;
5052;SDS011;2545;50.892;5.740;2023-12-14T07:48:06;26.97;;;14.33;;
5052;SDS011;2545;50.892;5.740;2023-12-14T07:50:31;29.93;;;15.20;;
5052;SDS011;2545;50.892;5.740;2023-12-14T07:52:56;29.47;;;15.27;;
5052;SDS011;2545;50.892;5.740;2023-12-14T07:55:22;25.50;;;14.03;;
5052;SDS011;2545;50.892;5.740;2023-12-14T07:57:47;27.27;;;14.27;;
5052;SDS011;2545;50.892;5.740;2023-12-14T08:00:13;32.53;;;16.37;;
5052;SDS011;2545;50.892;5.740;2023-12-14T08:02:39;30.93;;;15.57;;
5052;SDS011;2545;50.892;5.740;2023-12-14T08:05:04;27.90;;;14.57;;
5052;SDS011;2545;50.892;5.740;2023-12-14T08:07:31;33.77;;;15.17;;
5052;SDS011;2545;50.892;5.740;2023-12-14T08:09:56;31.10;;;16.17;;
5052;SDS011;2545;50.892;5.740;2023-12-14T08:12:23;38.47;;;15.27;;
5052;SDS011;2545;50.892;5.740;2023-12-14T08:14:49;32.13;;;16.67;;
5052;SDS011;2545;50.892;5.740;2023-12-14T08:17:15;31.30;;;15.70;;
5052;SDS011;2545;50.892;5.740;2023-12-14T08:19:41;29.60;;;15.43;;
5052;SDS011;2545;50.892;5.740;2023-12-14T08:22:09;28.67;;;14.60;;
5052;SDS011;2545;50.892;5.740;2023-12-14T08:24:37;29.10;;;15.30;;
5052;SDS011;2545;50.892;5.740;2023-12-14T08:27:03;25.53;;;14.37;;
5052;SDS011;2545;50.892;5.740;2023-12-14T08:29:28;29.93;;;14.33;;
5052;SDS011;2545;50.892;5.740;2023-12-14T08:31:53;29.97;;;16.17;;
5052;SDS011;2545;50.892;5.740;2023-12-14T08:34:22;32.70;;;15.07;;
5052;SDS011;2545;50.892;5.740;2023-12-14T08:36:50;29.70;;;15.70;;
5052;SDS011;2545;50.892;5.740;2023-12-14T08:39:16;25.57;;;13.40;;
5052;SDS011;2545;50.892;5.740;2023-12-14T08:41:41;24.73;;;13.50;;
5052;SDS011;2545;50.892;5.740;2023-12-14T08:44:08;27.00;;;13.20;;
5052;SDS011;2545;50.892;5.740;2023-12-14T08:46:43;26.83;;;13.97;;
5052;SDS011;2545;50.892;5.740;2023-12-14T08:49:10;24.63;;;13.40;;
5052;SDS011;2545;50.892;5.740;2023-12-14T08:51:36;31.90;;;14.60;;
5052;SDS011;2545;50.892;5.740;2023-12-14T08:54:01;27.07;;;13.23;;
5052;SDS011;2545;50.892;5.740;2023-12-14T08:56:27;25.70;;;14.17;;
5052;SDS011;2545;50.892;5.740;2023-12-14T08:58:52;45.13;;;15.00;;
5052;SDS011;2545;50.892;5.740;2023-12-14T09:01:20;29.07;;;15.50;;
5052;SDS011;2545;50.892;5.740;2023-12-14T09:03:47;23.27;;;13.70;;
5052;SDS011;2545;50.892;5.740;2023-12-14T09:06:12;31.07;;;16.33;;
5052;SDS011;2545;50.892;5.740;2023-12-14T09:08:39;29.20;;;16.50;;
5052;SDS011;2545;50.892;5.740;2023-12-14T09:11:05;27.90;;;14.03;;
5052;SDS011;2545;50.892;5.740;2023-12-14T09:13:30;37.43;;;13.93;;
5052;SDS011;2545;50.892;5.740;2023-12-14T09:15:55;30.67;;;16.07;;
5052;SDS011;2545;50.892;5.740;2023-12-14T09:18:22;29.03;;;15.33;;
5052;SDS011;2545;50.892;5.740;2023-12-14T09:20:49;25.87;;;15.33;;
5052;SDS011;2545;50.892;5.740;2023-12-14T09:23:15;37.40;;;15.47;;
5052;SDS011;2545;50.892;5.740;2023-12-14T09:25:41;26.23;;;15.50;;
5052;SDS011;2545;50.892;5.740;2023-12-14T09:28:06;31.67;;;15.47;;
5052;SDS011;2545;50.892;5.740;2023-12-14T09:30:32;27.97;;;15.00;;
5052;SDS011;2545;50.892;5.740;2023-12-14T09:32:59;31.60;;;15.07;;
5052;SDS011;2545;50.892;5.740;2023-12-14T09:35:24;29.70;;;15.20;;
5052;SDS011;2545;50.892;5.740;2023-12-14T09:37:49;29.00;;;16.63;;
5052;SDS011;2545;50.892;5.740;2023-12-14T09:40:15;26.57;;;13.73;;
5052;SDS011;2545;50.892;5.740;2023-12-14T09:42:42;25.27;;;14.77;;
5052;SDS011;2545;50.892;5.740;2023-12-14T09:45:07;26.00;;;13.80;;
5052;SDS011;2545;50.892;5.740;2023-12-14T09:47:35;33.43;;;15.67;;
5052;SDS011;2545;50.892;5.740;2023-12-14T09:50:02;29.37;;;15.73;;
5052;SDS011;2545;50.892;5.740;2023-12-14T09:52:28;26.20;;;14.10;;
5052;SDS011;2545;50.892;5.740;2023-12-14T09:54:54;30.13;;;15.70;;
5052;SDS011;2545;50.892;5.740;2023-12-14T09:57:19;28.40;;;15.43;;
5052;SDS011;2545;50.892;5.740;2023-12-14T09:59:51;25.60;;;14.50;;
5052;SDS011;2545;50.892;5.740;2023-12-14T10:02:18;26.63;;;15.13;;
5052;SDS011;2545;50.892;5.740;2023-12-14T10:04:46;25.50;;;14.43;;
5052;SDS011;2545;50.892;5.740;2023-12-14T10:07:11;26.37;;;14.73;;
5052;SDS011;2545;50.892;5.740;2023-12-14T10:09:37;31.93;;;15.10;;
5052;SDS011;2545;50.892;5.740;2023-12-14T10:12:07;28.83;;;15.00;;
5052;SDS011;2545;50.892;5.740;2023-12-14T10:14:34;25.87;;;14.57;;
5052;SDS011;2545;50.892;5.740;2023-12-14T10:17:13;28.10;;;14.90;;
5052;SDS011;2545;50.892;5.740;2023-12-14T10:19:42;27.10;;;14.43;;
5052;SDS011;2545;50.892;5.740;2023-12-14T10:22:08;29.07;;;14.03;;
5052;SDS011;2545;50.892;5.740;2023-12-14T10:24:33;27.67;;;14.20;;
5052;SDS011;2545;50.892;5.740;2023-12-14T10:26:59;28.30;;;14.73;;
5052;SDS011;2545;50.892;5.740;2023-12-14T10:29:29;22.47;;;13.03;;
5052;SDS011;2545;50.892;5.740;2023-12-14T10:31:57;23.20;;;13.57;;
5052;SDS011;2545;50.892;5.740;2023-12-14T10:34:24;24.43;;;14.50;;
5052;SDS011;2545;50.892;5.740;2023-12-14T10:36:49;32.83;;;15.07;;
5052;SDS011;2545;50.892;5.740;2023-12-14T10:39:15;23.63;;;12.53;;
5052;SDS011;2545;50.892;5.740;2023-12-14T10:41:44;22.27;;;11.10;;
5052;SDS011;2545;50.892;5.740;2023-12-14T10:44:13;23.00;;;12.13;;
5052;SDS011;2545;50.892;5.740;2023-12-14T10:46:41;21.00;;;12.80;;
5052;SDS011;2545;50.892;5.740;2023-12-14T10:49:07;25.70;;;12.57;;
5052;SDS011;2545;50.892;5.740;2023-12-14T10:51:33;21.13;;;11.90;;
5052;SDS011;2545;50.892;5.740;2023-12-14T10:54:02;24.30;;;12.60;;
5052;SDS011;2545;50.892;5.740;2023-12-14T10:56:28;22.20;;;12.50;;
5052;SDS011;2545;50.892;5.740;2023-12-14T10:58:55;25.00;;;13.20;;
5052;SDS011;2545;50.892;5.740;2023-12-14T11:01:22;18.90;;;11.00;;
5052;SDS011;2545;50.892;5.740;2023-12-14T11:03:49;20.80;;;12.57;;
5052;SDS011;2545;50.892;5.740;2023-12-14T11:06:36;16.20;;;10.23;;
5052;SDS011;2545;50.892;5.740;2023-12-14T11:09:07;25.10;;;12.17;;
5052;SDS011;2545;50.892;5.740;2023-12-14T11:14:21;22.73;;;11.30;;
5052;SDS011;2545;50.892;5.740;2023-12-14T11:16:48;18.37;;;11.13;;
5052;SDS011;2545;50.892;5.740;2023-12-14T11:21:48;17.20;;;10.67;;
5052;SDS011;2545;50.892;5.740;2023-12-14T11:24:22;13.90;;;9.00;;
5052;SDS011;2545;50.892;5.740;2023-12-14T11:26:51;20.23;;;9.50;;
5052;SDS011;2545;50.892;5.740;2023-12-14T11:29:19;17.33;;;10.40;;
5052;SDS011;2545;50.892;5.740;2023-12-14T11:31:47;15.47;;;9.40;;
5052;SDS011;2545;50.892;5.740;2023-12-14T11:34:14;18.00;;;10.30;;
5052;SDS011;2545;50.892;5.740;2023-12-14T11:36:40;25.50;;;10.57;;
5052;SDS011;2545;50.892;5.740;2023-12-14T11:39:09;14.03;;;9.63;;
5052;SDS011;2545;50.892;5.740;2023-12-14T11:41:35;18.93;;;10.80;;
5052;SDS011;2545;50.892;5.740;2023-12-14T11:44:01;14.17;;;9.17;;
5052;SDS011;2545;50.892;5.740;2023-12-14T11:46:28;19.67;;;10.70;;
5052;SDS011;2545;50.892;5.740;2023-12-14T11:48:55;14.13;;;9.70;;
5052;SDS011;2545;50.892;5.740;2023-12-14T11:51:21;17.07;;;9.67;;
5052;SDS011;2545;50.892;5.740;2023-12-14T11:53:47;21.70;;;9.70;;
5052;SDS011;2545;50.892;5.740;2023-12-14T11:56:18;20.10;;;10.27;;
5052;SDS011;2545;50.892;5.740;2023-12-14T11:58:44;13.03;;;8.77;;
5052;SDS011;2545;50.892;5.740;2023-12-14T12:01:19;16.63;;;9.63;;
5052;SDS011;2545;50.892;5.740;2023-12-14T12:03:49;11.87;;;8.07;;
5052;SDS011;2545;50.892;5.740;2023-12-14T12:06:21;10.60;;;7.40;;
5052;SDS011;2545;50.892;5.740;2023-12-14T12:08:52;10.60;;;6.87;;
5052;SDS011;2545;50.892;5.740;2023-12-14T12:11:18;11.33;;;6.60;;
5052;SDS011;2545;50.892;5.740;2023-12-14T12:13:52;14.13;;;7.13;;
5052;SDS011;2545;50.892;5.740;2023-12-14T12:16:21;8.07;;;6.47;;
5052;SDS011;2545;50.892;5.740;2023-12-14T12:18:47;13.60;;;6.90;;
5052;SDS011;2545;50.892;5.740;2023-12-14T12:21:14;21.07;;;7.20;;
5052;SDS011;2545;50.892;5.740;2023-12-14T12:23:39;7.17;;;4.90;;
5052;SDS011;2545;50.892;5.740;2023-12-14T12:26:06;10.50;;;6.23;;
5052;SDS011;2545;50.892;5.740;2023-12-14T12:28:32;8.03;;;5.83;;
5052;SDS011;2545;50.892;5.740;2023-12-14T12:30:57;8.30;;;5.50;;
5052;SDS011;2545;50.892;5.740;2023-12-14T12:33:24;14.33;;;6.80;;
5052;SDS011;2545;50.892;5.740;2023-12-14T12:35:50;11.20;;;5.90;;
5052;SDS011;2545;50.892;5.740;2023-12-14T12:38:17;9.80;;;5.97;;
5052;SDS011;2545;50.892;5.740;2023-12-14T12:40:44;10.50;;;5.90;;
5052;SDS011;2545;50.892;5.740;2023-12-14T12:43:10;10.73;;;6.50;;
5052;SDS011;2545;50.892;5.740;2023-12-14T12:45:36;6.73;;;5.20;;
5052;SDS011;2545;50.892;5.740;2023-12-14T12:48:02;11.80;;;6.03;;
5052;SDS011;2545;50.892;5.740;2023-12-14T12:50:28;11.97;;;5.77;;
5052;SDS011;2545;50.892;5.740;2023-12-14T12:52:54;6.10;;;4.80;;
5052;SDS011;2545;50.892;5.740;2023-12-14T12:55:20;10.77;;;6.20;;
5052;SDS011;2545;50.892;5.740;2023-12-14T12:57:45;8.37;;;5.93;;
5052;SDS011;2545;50.892;5.740;2023-12-14T13:00:12;9.13;;;5.10;;
5052;SDS011;2545;50.892;5.740;2023-12-14T13:02:41;7.00;;;4.90;;
5052;SDS011;2545;50.892;5.740;2023-12-14T13:05:08;8.47;;;4.93;;
5052;SDS011;2545;50.892;5.740;2023-12-14T13:07:34;6.20;;;4.83;;
5052;SDS011;2545;50.892;5.740;2023-12-14T13:10:01;10.57;;;5.03;;
5052;SDS011;2545;50.892;5.740;2023-12-14T13:12:33;7.30;;;4.93;;
5052;SDS011;2545;50.892;5.740;2023-12-14T13:14:59;8.27;;;4.50;;
5052;SDS011;2545;50.892;5.740;2023-12-14T13:17:25;8.30;;;5.30;;
5052;SDS011;2545;50.892;5.740;2023-12-14T13:19:51;6.70;;;4.77;;
5052;SDS011;2545;50.892;5.740;2023-12-14T13:22:16;9.40;;;5.10;;
5052;SDS011;2545;50.892;5.740;2023-12-14T13:24:42;6.80;;;5.37;;
5052;SDS011;2545;50.892;5.740;2023-12-14T13:27:07;17.53;;;7.03;;
5052;SDS011;2545;50.892;5.740;2023-12-14T13:29:32;7.60;;;5.83;;
5052;SDS011;2545;50.892;5.740;2023-12-14T13:31:59;8.23;;;5.70;;
5052;SDS011;2545;50.892;5.740;2023-12-14T13:34:25;7.00;;;5.30;;
5052;SDS011;2545;50.892;5.740;2023-12-14T13:36:51;6.90;;;5.67;;
5052;SDS011;2545;50.892;5.740;2023-12-14T13:39:16;11.30;;;5.93;;
5052;SDS011;2545;50.892;5.740;2023-12-14T13:41:42;11.70;;;5.83;;
5052;SDS011;2545;50.892;5.740;2023-12-14T13:44:07;9.00;;;5.47;;
5052;SDS011;2545;50.892;5.740;2023-12-14T13:46:33;10.53;;;6.57;;
5052;SDS011;2545;50.892;5.740;2023-12-14T13:48:58;8.20;;;5.00;;
5052;SDS011;2545;50.892;5.740;2023-12-14T13:51:23;7.60;;;5.20;;
5052;SDS011;2545;50.892;5.740;2023-12-14T13:53:49;8.67;;;5.70;;
5052;SDS011;2545;50.892;5.740;2023-12-14T13:56:14;12.10;;;7.20;;
5052;SDS011;2545;50.892;5.740;2023-12-14T13:58:39;11.67;;;6.00;;
5052;SDS011;2545;50.892;5.740;2023-12-14T14:01:05;9.50;;;5.47;;
5052;SDS011;2545;50.892;5.740;2023-12-14T14:03:34;12.87;;;6.80;;
5052;SDS011;2545;50.892;5.740;2023-12-14T14:06:00;7.20;;;5.20;;
5052;SDS011;2545;50.892;5.740;2023-12-14T14:08:27;8.10;;;5.70;;
5052;SDS011;2545;50.892;5.740;2023-12-14T14:10:53;11.53;;;6.20;;
5052;SDS011;2545;50.892;5.740;2023-12-14T14:13:18;10.73;;;6.10;;
5052;SDS011;2545;50.892;5.740;2023-12-14T14:15:48;12.30;;;7.00;;
5052;SDS011;2545;50.892;5.740;2023-12-14T14:18:13;9.47;;;6.83;;
5052;SDS011;2545;50.892;5.740;2023-12-14T14:20:38;7.77;;;6.50;;
5052;SDS011;2545;50.892;5.740;2023-12-14T14:23:05;14.67;;;6.20;;
5052;SDS011;2545;50.892;5.740;2023-12-14T14:25:30;11.50;;;7.07;;
5052;SDS011;2545;50.892;5.740;2023-12-14T14:27:55;15.73;;;6.80;;
5052;SDS011;2545;50.892;5.740;2023-12-14T14:30:21;12.53;;;6.73;;
5052;SDS011;2545;50.892;5.740;2023-12-14T14:32:46;11.50;;;6.53;;
5052;SDS011;2545;50.892;5.740;2023-12-14T14:35:11;10.53;;;6.30;;
5052;SDS011;2545;50.892;5.740;2023-12-14T14:37:37;11.40;;;7.00;;
5052;SDS011;2545;50.892;5.740;2023-12-14T14:40:02;11.97;;;7.20;;
5052;SDS011;2545;50.892;5.740;2023-12-14T14:42:29;13.93;;;6.60;;
5052;SDS011;2545;50.892;5.740;2023-12-14T14:44:55;11.67;;;7.97;;
5052;SDS011;2545;50.892;5.740;2023-12-14T14:47:20;12.63;;;7.40;;
5052;SDS011;2545;50.892;5.740;2023-12-14T14:49:46;13.10;;;7.50;;
5052;SDS011;2545;50.892;5.740;2023-12-14T14:52:12;8.50;;;6.33;;